createdAt,value
2022-12-31T00:01:32.823Z,5.70
2022-12-31T00:04:21.976Z,5.70
2022-12-31T00:07:10.694Z,5.80
2022-12-31T00:09:59.444Z,5.90
2022-12-31T00:12:48.302Z,5.80
2022-12-31T00:15:38.737Z,5.80
2022-12-31T00:18:28.171Z,5.90
2022-12-31T00:21:17.939Z,5.90
2022-12-31T00:24:08.091Z,5.80
2022-12-31T00:26:56.902Z,5.90
2022-12-31T00:29:45.659Z,5.80
2022-12-31T00:32:35.834Z,5.80
2022-12-31T00:35:24.589Z,5.70
2022-12-31T00:38:13.282Z,5.80
2022-12-31T00:41:02.048Z,5.70
2022-12-31T00:43:51.083Z,5.70
2022-12-31T00:49:28.903Z,5.70
2022-12-31T00:52:18.421Z,5.70
2022-12-31T00:55:08.387Z,5.60
2022-12-31T00:57:57.095Z,5.70
2022-12-31T01:00:45.855Z,5.60
2022-12-31T01:03:34.613Z,5.70
2022-12-31T01:06:25.138Z,5.70
2022-12-31T01:09:15.336Z,5.70
2022-12-31T01:12:04.238Z,5.70
2022-12-31T01:14:53.139Z,5.80
2022-12-31T01:17:42.061Z,5.70
2022-12-31T01:20:31.047Z,5.80
2022-12-31T01:23:25.127Z,5.70
2022-12-31T01:26:15.308Z,5.80
2022-12-31T01:29:04.278Z,5.70
2022-12-31T01:31:53.104Z,5.70
2022-12-31T01:34:42.102Z,5.60
2022-12-31T01:37:30.909Z,5.70
2022-12-31T01:40:21.142Z,5.70
2022-12-31T01:43:16.969Z,5.70
2022-12-31T01:46:05.949Z,5.80
2022-12-31T01:48:57.773Z,5.80
2022-12-31T01:51:50.062Z,5.80
2022-12-31T01:54:42.963Z,5.80
2022-12-31T01:57:33.574Z,5.80
2022-12-31T02:00:22.528Z,5.80
2022-12-31T02:03:11.707Z,5.80
2022-12-31T02:06:05.100Z,5.90
2022-12-31T02:08:53.911Z,5.90
2022-12-31T02:11:42.746Z,6.00
2022-12-31T02:14:37.500Z,6.00
2022-12-31T02:17:33.839Z,6.00
2022-12-31T02:21:06.916Z,6.10
2022-12-31T02:24:29.269Z,6.10
2022-12-31T02:27:30.661Z,6.10
2022-12-31T02:30:22.840Z,6.20
2022-12-31T02:33:19.267Z,6.10
2022-12-31T02:36:14.034Z,6.10
2022-12-31T02:39:05.872Z,6.10
2022-12-31T02:41:54.919Z,6.10
2022-12-31T02:44:44.871Z,6.20
2022-12-31T02:47:47.179Z,6.20
2022-12-31T02:50:55.689Z,6.30
2022-12-31T02:54:20.405Z,6.30
2022-12-31T02:57:16.752Z,6.30
2022-12-31T03:00:25.487Z,6.40
2022-12-31T03:03:15.611Z,6.40
2022-12-31T03:06:05.531Z,6.40
2022-12-31T03:09:11.711Z,6.40
2022-12-31T03:12:18.567Z,6.40
2022-12-31T03:15:20.042Z,6.50
2022-12-31T03:18:10.812Z,6.40
2022-12-31T03:21:18.087Z,6.40
2022-12-31T03:24:24.894Z,6.40
2022-12-31T03:27:13.956Z,6.40
2022-12-31T03:30:02.726Z,6.50
2022-12-31T03:32:52.792Z,6.50
2022-12-31T03:35:45.778Z,6.50
2022-12-31T03:38:36.113Z,6.50
2022-12-31T03:41:24.730Z,6.60
2022-12-31T03:44:13.737Z,6.50
2022-12-31T03:47:02.528Z,6.60
2022-12-31T03:49:51.388Z,6.60
2022-12-31T03:52:40.733Z,6.70
2022-12-31T03:55:30.775Z,6.70
2022-12-31T03:58:19.529Z,6.70
2022-12-31T04:01:08.558Z,6.70
2022-12-31T04:03:57.306Z,6.70
2022-12-31T04:06:46.070Z,6.70
2022-12-31T04:09:34.922Z,6.70
2022-12-31T04:12:25.829Z,6.80
2022-12-31T04:15:18.619Z,6.80
2022-12-31T04:18:07.502Z,6.80
2022-12-31T04:20:56.135Z,6.80
2022-12-31T04:23:48.993Z,6.80
2022-12-31T04:26:37.911Z,6.90
2022-12-31T04:29:28.405Z,7.00
2022-12-31T04:32:17.617Z,7.00
2022-12-31T04:35:07.432Z,7.00
2022-12-31T04:37:56.203Z,7.00
2022-12-31T04:41:00.678Z,7.10
2022-12-31T04:43:51.331Z,7.00
2022-12-31T04:46:41.497Z,7.00
2022-12-31T04:49:30.185Z,7.00
2022-12-31T04:52:19.014Z,7.00
2022-12-31T04:55:08.329Z,7.00
2022-12-31T04:57:56.961Z,7.00
2022-12-31T05:00:49.916Z,7.10
2022-12-31T05:03:40.444Z,7.10
2022-12-31T05:06:29.245Z,7.20
2022-12-31T05:09:17.923Z,7.20
2022-12-31T05:12:07.262Z,7.30
2022-12-31T05:14:55.983Z,7.20
2022-12-31T05:17:44.958Z,7.30
2022-12-31T05:20:35.189Z,7.30
2022-12-31T05:23:23.857Z,7.30
2022-12-31T05:26:12.900Z,7.30
2022-12-31T05:29:01.802Z,7.40
2022-12-31T05:31:50.516Z,7.30
2022-12-31T05:34:39.440Z,7.40
2022-12-31T05:37:30.418Z,7.40
2022-12-31T05:40:19.606Z,7.40
2022-12-31T05:43:08.332Z,7.40
2022-12-31T05:45:57.092Z,7.50
2022-12-31T05:48:45.859Z,7.50
2022-12-31T05:51:34.578Z,7.60
2022-12-31T05:54:24.719Z,7.60
2022-12-31T05:57:13.640Z,7.60
2022-12-31T06:00:02.934Z,7.60
2022-12-31T06:03:02.325Z,7.70
2022-12-31T06:05:51.237Z,7.70
2022-12-31T06:08:40.149Z,7.80
2022-12-31T06:11:30.301Z,7.90
2022-12-31T06:14:19.167Z,7.90
2022-12-31T06:17:07.869Z,7.90
2022-12-31T06:19:56.579Z,7.90
2022-12-31T06:22:45.392Z,8.00
2022-12-31T06:25:35.742Z,8.00
2022-12-31T06:28:25.796Z,8.10
2022-12-31T06:31:15.805Z,8.10
2022-12-31T06:34:04.761Z,8.10
2022-12-31T06:36:53.509Z,8.20
2022-12-31T06:39:42.475Z,8.20
2022-12-31T06:42:32.090Z,8.20
2022-12-31T06:45:22.255Z,8.20
2022-12-31T06:48:11.142Z,8.30
2022-12-31T06:51:05.478Z,8.30
2022-12-31T06:53:54.188Z,8.30
2022-12-31T06:56:43.985Z,8.30
2022-12-31T06:59:33.171Z,8.30
2022-12-31T07:02:37.695Z,8.30
2022-12-31T07:05:35.802Z,8.40
2022-12-31T07:08:45.529Z,8.40
2022-12-31T07:11:40.582Z,8.50
2022-12-31T07:14:37.689Z,8.50
2022-12-31T07:17:36.812Z,8.50
2022-12-31T07:20:26.154Z,8.50
2022-12-31T07:23:15.449Z,8.60
2022-12-31T07:26:10.349Z,8.50
2022-12-31T07:29:07.060Z,8.60
2022-12-31T07:32:04.885Z,8.60
2022-12-31T07:35:02.289Z,8.70
2022-12-31T07:38:00.824Z,8.60
2022-12-31T07:40:58.660Z,8.70
2022-12-31T07:44:01.062Z,8.70
2022-12-31T07:46:55.664Z,8.70
2022-12-31T07:49:45.513Z,8.80
2022-12-31T07:52:36.198Z,8.80
2022-12-31T07:55:24.871Z,8.90
2022-12-31T07:58:22.312Z,8.90
2022-12-31T08:01:14.814Z,8.90
2022-12-31T08:04:09.144Z,8.90
2022-12-31T08:07:04.583Z,9.00
2022-12-31T08:10:04.287Z,9.00
2022-12-31T08:12:59.866Z,9.10
2022-12-31T08:15:49.373Z,9.10
2022-12-31T08:18:38.422Z,9.10
2022-12-31T08:21:37.207Z,9.10
2022-12-31T08:24:31.957Z,9.20
2022-12-31T08:27:29.195Z,9.20
2022-12-31T08:30:22.014Z,9.20
2022-12-31T08:33:15.601Z,9.30
2022-12-31T08:36:19.542Z,9.30
2022-12-31T08:39:18.273Z,9.40
2022-12-31T08:42:20.839Z,9.40
2022-12-31T08:45:19.843Z,9.50
2022-12-31T08:48:20.388Z,9.50
2022-12-31T08:51:16.005Z,9.50
2022-12-31T08:54:05.348Z,9.50
2022-12-31T08:57:10.556Z,9.60
2022-12-31T09:00:07.068Z,9.60
2022-12-31T09:03:16.804Z,9.70
2022-12-31T09:06:14.927Z,9.80
2022-12-31T09:09:11.764Z,9.90
2022-12-31T09:12:07.163Z,10.00
2022-12-31T09:15:01.955Z,10.10
2022-12-31T09:17:52.279Z,10.20
2022-12-31T09:20:44.438Z,10.20
2022-12-31T09:23:33.938Z,10.20
2022-12-31T09:26:43.659Z,10.20
2022-12-31T09:29:44.629Z,10.30
2022-12-31T09:32:43.201Z,10.30
2022-12-31T09:35:37.721Z,10.40
2022-12-31T09:38:32.505Z,10.40
2022-12-31T09:41:46.983Z,10.40
2022-12-31T09:45:07.517Z,10.40
2022-12-31T09:48:46.916Z,10.40
2022-12-31T09:51:44.765Z,10.40
2022-12-31T09:54:48.063Z,10.50
2022-12-31T09:57:41.889Z,10.50
2022-12-31T10:00:39.455Z,10.50
2022-12-31T10:04:06.394Z,10.50
2022-12-31T10:07:07.556Z,10.50
2022-12-31T10:10:19.719Z,10.50
2022-12-31T10:13:37.349Z,10.50
2022-12-31T10:16:57.129Z,10.50
2022-12-31T10:20:20.554Z,10.50
2022-12-31T10:23:27.575Z,10.60
2022-12-31T10:26:36.311Z,10.70
2022-12-31T10:29:39.623Z,10.80
2022-12-31T10:32:41.229Z,10.90
2022-12-31T10:35:37.995Z,10.90
2022-12-31T10:38:35.486Z,10.90
2022-12-31T10:42:03.249Z,11.00
2022-12-31T10:45:36.667Z,11.10
2022-12-31T10:49:09.733Z,11.20
2022-12-31T10:52:25.108Z,11.20
2022-12-31T10:56:08.366Z,11.30
2022-12-31T10:59:26.774Z,11.30
2022-12-31T11:02:39.892Z,11.30
2022-12-31T11:05:57.929Z,11.40
2022-12-31T11:09:13.656Z,11.40
2022-12-31T11:12:11.608Z,11.50
2022-12-31T11:15:18.822Z,11.50
2022-12-31T11:18:16.728Z,11.50
2022-12-31T11:21:26.228Z,11.50
2022-12-31T11:24:32.884Z,11.50
2022-12-31T11:27:34.555Z,11.60
2022-12-31T11:30:28.740Z,11.70
2022-12-31T11:33:34.295Z,11.60
2022-12-31T11:36:32.897Z,11.60
2022-12-31T11:39:36.287Z,11.60
2022-12-31T11:42:34.061Z,11.60
2022-12-31T11:45:43.224Z,11.70
2022-12-31T11:48:46.790Z,11.70
2022-12-31T11:51:50.791Z,11.80
2022-12-31T11:54:50.513Z,11.80
2022-12-31T11:57:42.161Z,11.90
2022-12-31T12:00:33.309Z,11.80
2022-12-31T12:03:23.277Z,11.90
2022-12-31T12:06:16.586Z,11.90
2022-12-31T12:09:08.723Z,11.90
2022-12-31T12:12:02.941Z,12.00
2022-12-31T12:14:54.892Z,12.00
2022-12-31T12:17:43.683Z,12.10
2022-12-31T12:20:35.050Z,12.20
2022-12-31T12:23:27.210Z,12.20
2022-12-31T12:26:29.401Z,12.30
2022-12-31T12:29:20.963Z,12.30
2022-12-31T12:32:18.225Z,12.30
2022-12-31T12:35:17.490Z,12.30
2022-12-31T12:38:08.542Z,12.30
2022-12-31T12:41:01.908Z,12.20
2022-12-31T12:43:51.528Z,12.10
2022-12-31T12:46:48.191Z,12.10
2022-12-31T12:49:41.769Z,12.00
2022-12-31T12:52:46.901Z,12.00
2022-12-31T12:55:43.765Z,12.00
2022-12-31T12:58:44.202Z,12.00
2022-12-31T13:01:42.000Z,12.00
2022-12-31T13:04:49.171Z,12.10
2022-12-31T13:07:47.837Z,12.10
2022-12-31T13:11:06.215Z,12.10
2022-12-31T13:14:01.742Z,12.10
2022-12-31T13:17:00.859Z,12.10
2022-12-31T13:19:57.926Z,12.10
2022-12-31T13:22:53.640Z,12.10
2022-12-31T13:25:57.281Z,12.10
2022-12-31T13:28:49.109Z,12.10
2022-12-31T13:31:42.285Z,12.10
2022-12-31T13:34:34.949Z,12.20
2022-12-31T13:37:30.239Z,12.10
2022-12-31T13:40:23.929Z,12.20
2022-12-31T13:43:19.842Z,12.20
2022-12-31T13:46:19.345Z,12.20
2022-12-31T13:49:18.200Z,12.20
2022-12-31T13:52:20.505Z,12.20
2022-12-31T13:55:15.953Z,12.30
2022-12-31T13:58:10.839Z,12.30
2022-12-31T14:01:06.433Z,12.30
2022-12-31T14:04:00.973Z,12.30
2022-12-31T14:06:54.676Z,12.30
2022-12-31T14:09:43.585Z,12.40
2022-12-31T14:12:41.334Z,12.40
2022-12-31T14:15:34.686Z,12.40
2022-12-31T14:18:30.400Z,12.40
2022-12-31T14:21:24.747Z,12.40
2022-12-31T14:24:22.943Z,12.50
2022-12-31T14:27:18.554Z,12.50
2022-12-31T14:30:14.574Z,12.60
2022-12-31T14:33:15.459Z,12.60
2022-12-31T14:36:18.906Z,12.60
2022-12-31T14:39:27.933Z,12.60
2022-12-31T14:42:26.172Z,12.70
2022-12-31T14:45:43.322Z,12.70
2022-12-31T14:48:45.815Z,12.70
2022-12-31T14:51:37.057Z,12.80
2022-12-31T14:54:29.818Z,12.80
2022-12-31T14:57:26.347Z,12.80
2022-12-31T15:00:35.196Z,12.80
2022-12-31T15:03:27.969Z,12.80
2022-12-31T15:06:41.595Z,12.90
2022-12-31T15:10:09.420Z,12.90
2022-12-31T15:13:04.644Z,13.00
2022-12-31T15:16:20.027Z,13.00
2022-12-31T15:19:34.373Z,13.10
2022-12-31T15:22:39.356Z,13.10
2022-12-31T15:25:40.007Z,13.10
2022-12-31T15:28:34.823Z,13.10
2022-12-31T15:31:23.679Z,13.10
2022-12-31T15:34:26.875Z,13.20
2022-12-31T15:37:35.511Z,13.30
2022-12-31T15:40:25.433Z,13.30
2022-12-31T15:43:22.023Z,13.30
2022-12-31T15:46:17.619Z,13.30
2022-12-31T15:49:15.703Z,13.30
2022-12-31T15:52:08.420Z,13.40
2022-12-31T15:54:58.563Z,13.40
2022-12-31T15:57:47.907Z,13.40
2022-12-31T16:00:52.982Z,13.40
2022-12-31T16:03:46.387Z,13.40
2022-12-31T16:06:38.153Z,13.50
2022-12-31T16:09:28.771Z,13.60
2022-12-31T16:12:22.283Z,13.60
2022-12-31T16:15:21.765Z,13.60
2022-12-31T16:18:22.414Z,13.70
2022-12-31T16:21:30.284Z,13.60
2022-12-31T16:24:28.841Z,13.60
2022-12-31T16:27:18.542Z,13.60
2022-12-31T16:30:09.606Z,13.60
2022-12-31T16:33:01.491Z,13.60
2022-12-31T16:35:57.868Z,13.70
2022-12-31T16:38:47.236Z,13.70
2022-12-31T16:41:44.420Z,13.70
2022-12-31T16:44:33.138Z,13.80
2022-12-31T16:47:24.708Z,13.80
2022-12-31T16:50:18.907Z,13.80
2022-12-31T16:53:14.236Z,13.70
2022-12-31T16:56:08.860Z,13.70
2022-12-31T16:59:04.522Z,13.60
2022-12-31T17:01:56.098Z,13.60
2022-12-31T17:04:55.403Z,13.60
2022-12-31T17:07:45.009Z,13.60
2022-12-31T17:10:37.308Z,13.60
2022-12-31T17:13:30.907Z,13.60
2022-12-31T17:16:20.275Z,13.60
2022-12-31T17:19:09.309Z,13.70
2022-12-31T17:21:58.234Z,13.70
2022-12-31T17:24:50.131Z,13.80
2022-12-31T17:27:40.536Z,13.80
2022-12-31T17:30:41.467Z,13.70
2022-12-31T17:33:33.211Z,13.80
2022-12-31T17:36:24.341Z,13.70
2022-12-31T17:39:18.653Z,13.70
2022-12-31T17:42:09.514Z,13.70
2022-12-31T17:45:02.082Z,13.70
2022-12-31T17:47:54.030Z,13.70
2022-12-31T17:50:48.856Z,13.80
2022-12-31T17:53:38.415Z,13.70
2022-12-31T17:56:27.342Z,13.70
2022-12-31T17:59:19.039Z,13.70
2022-12-31T18:02:14.466Z,13.70
2022-12-31T18:05:03.380Z,13.60
2022-12-31T18:07:52.871Z,13.60
2022-12-31T18:10:43.559Z,13.60
2022-12-31T18:13:32.515Z,13.60
2022-12-31T18:16:22.067Z,13.60
2022-12-31T18:19:37.990Z,13.60
2022-12-31T18:22:24.656Z,13.70
2022-12-31T18:25:18.165Z,13.70
2022-12-31T18:28:12.923Z,13.70
2022-12-31T18:31:01.816Z,13.70
2022-12-31T18:33:51.933Z,13.80
2022-12-31T18:36:42.572Z,13.80
2022-12-31T18:39:31.647Z,13.80
2022-12-31T18:42:22.103Z,13.80
2022-12-31T18:45:17.199Z,13.80
2022-12-31T18:48:09.385Z,13.80
2022-12-31T18:50:58.283Z,13.90
2022-12-31T18:53:48.738Z,13.90
2022-12-31T18:56:41.856Z,13.90
2022-12-31T18:59:33.712Z,13.90
2022-12-31T19:02:22.421Z,13.90
2022-12-31T19:05:22.878Z,14.00
2022-12-31T19:08:11.533Z,14.00
2022-12-31T19:11:02.921Z,14.00
2022-12-31T19:13:53.203Z,14.10
2022-12-31T19:16:42.116Z,14.00
2022-12-31T19:19:31.090Z,14.00
2022-12-31T19:22:19.737Z,14.10
2022-12-31T19:25:18.384Z,14.10
2022-12-31T19:28:17.849Z,14.10
2022-12-31T19:31:07.470Z,14.10
2022-12-31T19:33:56.290Z,14.20
2022-12-31T19:36:45.341Z,14.20
2022-12-31T19:39:34.289Z,14.20
2022-12-31T19:42:23.322Z,14.20
2022-12-31T19:45:17.902Z,14.10
2022-12-31T19:48:07.093Z,14.20
2022-12-31T19:50:55.947Z,14.10
2022-12-31T19:53:45.937Z,14.10
2022-12-31T19:56:34.783Z,14.10
2022-12-31T19:59:23.517Z,14.10
2022-12-31T20:02:13.699Z,14.10
2022-12-31T20:05:02.590Z,14.10
2022-12-31T20:07:51.267Z,14.10
2022-12-31T20:10:40.736Z,14.10
2022-12-31T20:13:29.423Z,14.20
2022-12-31T20:16:21.158Z,14.10
2022-12-31T20:19:12.278Z,14.20
2022-12-31T20:22:01.033Z,14.20
2022-12-31T20:24:49.741Z,14.20
2022-12-31T20:27:38.641Z,14.20
2022-12-31T20:30:27.959Z,14.20
2022-12-31T20:33:19.141Z,14.20
2022-12-31T20:36:11.885Z,14.20
2022-12-31T20:39:00.683Z,14.10
2022-12-31T20:41:49.584Z,14.20
2022-12-31T20:44:38.353Z,14.10
2022-12-31T20:47:27.204Z,14.20
2022-12-31T20:50:16.399Z,14.20
2022-12-31T20:53:06.459Z,14.20
2022-12-31T20:55:55.334Z,14.10
2022-12-31T20:58:44.096Z,14.20
2022-12-31T21:01:55.461Z,14.10
2022-12-31T21:04:42.048Z,14.20
2022-12-31T21:07:30.928Z,14.20
2022-12-31T21:10:21.414Z,14.20
2022-12-31T21:13:09.441Z,14.20
2022-12-31T21:15:58.453Z,14.10
2022-12-31T21:18:48.189Z,14.10
2022-12-31T21:21:37.673Z,14.20
2022-12-31T21:24:27.255Z,14.20
2022-12-31T21:27:17.653Z,14.20
2022-12-31T21:30:22.366Z,14.20
2022-12-31T21:33:11.203Z,14.20
2022-12-31T21:36:04.468Z,14.30
2022-12-31T21:38:53.779Z,14.20
2022-12-31T21:41:54.379Z,14.30
2022-12-31T21:44:44.658Z,14.20
2022-12-31T21:47:51.286Z,14.20
2022-12-31T21:50:40.079Z,14.20
2022-12-31T21:53:36.187Z,14.20
2022-12-31T21:56:24.700Z,14.20
2022-12-31T21:59:30.884Z,14.20
2022-12-31T22:02:38.557Z,14.20
2022-12-31T22:05:27.304Z,14.20
2022-12-31T22:08:16.354Z,14.10
2022-12-31T22:11:05.123Z,14.20
2022-12-31T22:13:55.093Z,14.10
2022-12-31T22:16:43.838Z,14.20
2022-12-31T22:19:48.663Z,14.10
2022-12-31T22:22:42.981Z,14.20
2022-12-31T22:25:31.709Z,14.20
2022-12-31T22:28:38.229Z,14.20
2022-12-31T22:31:30.048Z,14.10
2022-12-31T22:34:19.484Z,14.10
2022-12-31T22:37:35.818Z,14.10
2022-12-31T22:40:18.828Z,14.20
2022-12-31T22:43:07.570Z,14.20
2022-12-31T22:45:56.561Z,14.20
2022-12-31T22:48:45.499Z,14.30
2022-12-31T22:51:55.794Z,14.30
2022-12-31T22:54:44.369Z,14.30
2022-12-31T22:57:33.392Z,14.30
2022-12-31T23:00:38.327Z,14.20
2022-12-31T23:03:27.119Z,14.20
2022-12-31T23:06:16.008Z,14.20
2022-12-31T23:09:22.246Z,14.10
2022-12-31T23:12:12.740Z,14.20
2022-12-31T23:15:18.562Z,14.20
2022-12-31T23:18:24.750Z,14.20
2022-12-31T23:21:30.937Z,14.10
2022-12-31T23:24:26.100Z,14.10
2022-12-31T23:27:16.845Z,14.10
2022-12-31T23:30:06.560Z,14.10
2022-12-31T23:32:55.385Z,14.00
2022-12-31T23:35:44.397Z,14.10
2022-12-31T23:38:33.188Z,14.10
2022-12-31T23:41:22.783Z,14.10
2022-12-31T23:44:13.384Z,14.00
2022-12-31T23:47:02.082Z,14.10
2022-12-31T23:49:50.942Z,14.10
2022-12-31T23:52:39.742Z,14.10
2022-12-31T23:55:28.455Z,14.10
2022-12-31T23:58:17.641Z,14.00
